Terminal Aerodrome Forecast
Issued by NWS

Home | Current Version | Previous Version | Text Only | Print | Product List | Glossary On
Versions: 1 2 3 4 5 6 7 8 9 10 11 12 13 14 15 16 17 18 19 20 21 22
000
FTUS46 KLOX 220553
TAFOXR
TAF
KOXR 220553Z 2206/2306 29005KT P6SM SKC
     FM221000 31004KT P6SM SCT011
     FM221200 VRB03KT P6SM BKN011
     FM221830 27012KT P6SM SCT016
     FM230300 29006KT P6SM SKC=

USA.gov is the U.S. government's official web portal to all federal, state and local government web resources and services.